createdAt,value
2022-09-24T00:01:42.026Z,9.75
2022-09-24T00:04:12.509Z,9.95
2022-09-24T00:06:46.361Z,11.00
2022-09-24T00:09:16.373Z,10.98
2022-09-24T00:11:45.609Z,10.82
2022-09-24T00:14:14.447Z,10.73
2022-09-24T00:16:44.123Z,15.23
2022-09-24T00:19:13.908Z,11.20
2022-09-24T00:21:43.121Z,10.85
2022-09-24T00:24:39.287Z,9.93
2022-09-24T00:27:06.794Z,9.50
2022-09-24T00:29:35.845Z,11.15
2022-09-24T00:32:08.164Z,12.73
2022-09-24T00:34:37.923Z,12.57
2022-09-24T00:37:07.502Z,11.27
2022-09-24T00:39:37.893Z,10.77
2022-09-24T00:44:58.676Z,9.35
2022-09-24T00:47:40.831Z,12.13
2022-09-24T00:50:48.625Z,10.10
2022-09-24T00:53:29.081Z,9.10
2022-09-24T00:59:43.562Z,12.90
2022-09-24T01:02:12.749Z,11.05
2022-09-24T01:04:50.420Z,9.88
2022-09-24T01:10:12.473Z,11.55
2022-09-24T01:12:55.837Z,11.35
2022-09-24T01:15:33.833Z,10.30
2022-09-24T01:18:16.356Z,9.35
2022-09-24T01:20:53.936Z,12.93
2022-09-24T01:23:51.221Z,9.85
2022-09-24T01:26:51.261Z,10.43
2022-09-24T01:29:45.512Z,12.40
2022-09-24T01:32:32.322Z,10.43
2022-09-24T01:35:26.424Z,12.85
2022-09-24T01:41:22.610Z,11.85
2022-09-24T01:43:50.552Z,11.30
2022-09-24T01:46:43.161Z,10.35
2022-09-24T01:49:17.354Z,12.25
2022-09-24T01:51:50.247Z,14.88
2022-09-24T01:54:27.475Z,13.43
2022-09-24T01:57:02.156Z,11.00
2022-09-24T01:59:41.321Z,10.63
2022-09-24T02:02:28.333Z,10.55
2022-09-24T02:05:20.617Z,10.43
2022-09-24T02:08:12.115Z,13.40
2022-09-24T02:10:56.586Z,11.52
2022-09-24T02:13:33.532Z,11.40
2022-09-24T02:19:01.069Z,12.77
2022-09-24T02:21:30.607Z,13.77
2022-09-24T02:24:09.691Z,13.18
2022-09-24T02:26:38.324Z,10.85
2022-09-24T02:29:06.709Z,15.38
2022-09-24T02:31:39.847Z,11.13
2022-09-24T02:34:25.836Z,12.68
2022-09-24T02:37:20.431Z,12.73
2022-09-24T02:39:48.510Z,13.07
2022-09-24T02:42:18.092Z,11.27
2022-09-24T02:44:50.361Z,10.48
2022-09-24T02:47:44.292Z,13.75
2022-09-24T02:50:12.533Z,10.75
2022-09-24T02:52:40.231Z,12.57
2022-09-24T03:00:57.572Z,12.90
2022-09-24T03:03:24.615Z,14.30
2022-09-24T03:05:54.637Z,11.35
2022-09-24T03:11:18.712Z,9.15
2022-09-24T03:13:46.377Z,11.23
2022-09-24T03:16:14.739Z,10.05
2022-09-24T03:19:07.413Z,10.13
2022-09-24T03:22:00.284Z,13.88
2022-09-24T03:27:21.116Z,9.30
2022-09-24T03:35:50.302Z,10.63
2022-09-24T03:38:18.206Z,9.13
2022-09-24T03:40:55.303Z,12.82
2022-09-24T03:43:22.985Z,12.52
2022-09-24T03:45:51.075Z,9.45
2022-09-24T03:48:49.967Z,9.43
2022-09-24T03:51:20.073Z,10.95
2022-09-24T03:54:12.695Z,11.25
2022-09-24T03:56:40.447Z,9.23
2022-09-24T03:59:10.317Z,12.52
2022-09-24T04:01:42.440Z,10.23
2022-09-24T04:04:36.187Z,11.35
2022-09-24T04:07:04.956Z,10.95
2022-09-24T04:09:32.628Z,9.65
2022-09-24T04:12:05.484Z,11.75
2022-09-24T04:14:32.930Z,12.18
2022-09-24T04:17:13.630Z,9.88
2022-09-24T04:19:42.229Z,10.05
2022-09-24T04:22:10.191Z,9.48
2022-09-24T04:24:38.209Z,10.05
2022-09-24T04:27:06.253Z,10.27
2022-09-24T04:29:58.281Z,12.15
2022-09-24T04:32:26.357Z,12.02
2022-09-24T04:34:54.262Z,12.57
2022-09-24T04:37:27.164Z,12.57
2022-09-24T04:39:54.379Z,12.18
2022-09-24T04:42:22.493Z,14.18
2022-09-24T04:44:55.334Z,14.65
2022-09-24T04:47:26.595Z,13.70
2022-09-24T04:49:54.181Z,16.17
2022-09-24T04:55:16.494Z,11.27
2022-09-24T04:57:45.966Z,12.32
2022-09-24T05:00:22.397Z,11.85
2022-09-24T05:03:04.380Z,12.88
2022-09-24T05:05:38.800Z,9.13
2022-09-24T05:08:06.183Z,13.80
2022-09-24T05:10:34.575Z,15.38
2022-09-24T05:13:02.442Z,11.70
2022-09-24T05:15:34.270Z,12.90
2022-09-24T05:18:02.225Z,11.50
2022-09-24T05:20:34.306Z,13.07
2022-09-24T05:23:07.228Z,12.50
2022-09-24T05:25:34.498Z,16.08
2022-09-24T05:28:26.349Z,14.57
2022-09-24T05:31:00.365Z,13.25
2022-09-24T05:33:28.478Z,14.80
2022-09-24T05:35:58.160Z,15.80
2022-09-24T05:38:33.113Z,15.57
2022-09-24T05:41:00.335Z,13.90
2022-09-24T05:43:28.265Z,14.98
2022-09-24T05:45:58.922Z,15.73
2022-09-24T05:48:26.437Z,16.13
2022-09-24T05:50:57.333Z,15.90
2022-09-24T05:53:51.309Z,17.83
2022-09-24T05:59:15.477Z,17.65
2022-09-24T06:01:42.224Z,14.50
2022-09-24T06:04:13.202Z,18.48
2022-09-24T06:07:11.280Z,19.00
2022-09-24T06:09:39.005Z,19.35
2022-09-24T06:12:08.415Z,16.60
2022-09-24T06:14:42.574Z,17.58
2022-09-24T06:17:15.874Z,17.17
2022-09-24T06:19:49.257Z,17.65
2022-09-24T06:22:16.136Z,18.77
2022-09-24T06:24:44.210Z,22.58
2022-09-24T06:27:12.492Z,23.58
2022-09-24T06:29:40.157Z,20.38
2022-09-24T06:32:08.162Z,22.65
2022-09-24T06:34:45.245Z,21.58
2022-09-24T06:37:12.260Z,24.70
2022-09-24T06:39:40.203Z,24.00
2022-09-24T06:42:08.382Z,22.00
2022-09-24T06:44:36.134Z,25.20
2022-09-24T06:50:05.195Z,24.10
2022-09-24T06:56:41.746Z,22.60
2022-09-24T07:02:30.194Z,23.77
2022-09-24T07:05:05.238Z,24.52
2022-09-24T07:07:35.494Z,26.75
2022-09-24T07:10:26.168Z,27.40
2022-09-24T07:12:54.515Z,28.13
2022-09-24T07:15:22.280Z,24.25
2022-09-24T07:21:03.502Z,25.70
2022-09-24T07:34:46.651Z,22.50
2022-09-24T07:37:20.460Z,21.33
2022-09-24T07:39:49.139Z,24.40
2022-09-24T07:42:16.513Z,20.20
2022-09-24T07:50:09.788Z,19.20
2022-09-24T07:55:26.749Z,23.52
2022-09-24T08:03:52.794Z,19.08
2022-09-24T08:09:09.041Z,17.73
2022-09-24T08:11:47.047Z,18.30
2022-09-24T08:14:42.586Z,18.73
2022-09-24T08:17:10.483Z,22.30
2022-09-24T08:19:43.534Z,17.52
2022-09-24T08:22:10.330Z,19.55
2022-09-24T08:24:41.905Z,19.63
2022-09-24T08:27:17.474Z,21.80
2022-09-24T08:32:38.173Z,22.17
2022-09-24T08:35:08.602Z,22.80
2022-09-24T08:38:07.274Z,22.08
2022-09-24T08:43:52.925Z,20.48
2022-09-24T08:46:49.314Z,20.17
2022-09-24T08:49:49.379Z,23.50
2022-09-24T08:52:34.146Z,25.10
2022-09-24T09:03:45.132Z,27.35
2022-09-24T09:06:31.742Z,23.65
2022-09-24T09:09:25.235Z,23.02
2022-09-24T09:12:26.065Z,22.38
2022-09-24T09:15:11.485Z,24.88
2022-09-24T09:18:36.402Z,28.30
2022-09-24T09:21:39.178Z,26.52
2022-09-24T09:24:31.313Z,25.08
2022-09-24T09:33:23.558Z,21.98
2022-09-24T09:53:37.872Z,24.10
2022-09-24T09:59:08.833Z,22.83
2022-09-24T10:01:41.284Z,24.15
2022-09-24T10:04:40.555Z,23.63
2022-09-24T10:10:20.110Z,24.13
2022-09-24T10:12:48.299Z,27.00
2022-09-24T10:15:21.699Z,27.85
2022-09-24T10:17:54.749Z,27.15
2022-09-24T10:20:28.524Z,31.23
2022-09-24T10:26:02.293Z,30.45
2022-09-24T10:29:05.284Z,28.42
2022-09-24T10:31:38.001Z,24.23
2022-09-24T10:34:21.483Z,28.10
2022-09-24T10:36:59.022Z,28.63
2022-09-24T10:39:31.371Z,28.77
2022-09-24T10:41:58.803Z,28.60
2022-09-24T10:44:34.231Z,28.05
2022-09-24T10:47:13.726Z,28.77
2022-09-24T10:49:59.463Z,31.25
2022-09-24T10:52:53.038Z,28.08
2022-09-24T10:55:45.312Z,30.13
2022-09-24T10:58:48.397Z,29.73
2022-09-24T11:01:33.766Z,25.25
2022-09-24T11:04:12.801Z,30.40
2022-09-24T11:10:27.904Z,30.40
2022-09-24T11:13:11.870Z,30.02
2022-09-24T11:16:27.975Z,31.90
2022-09-24T11:19:01.798Z,31.95
2022-09-24T11:21:43.397Z,31.33
2022-09-24T11:24:22.030Z,32.85
2022-09-24T11:27:13.713Z,32.95
2022-09-24T11:29:58.537Z,32.20
2022-09-24T11:36:33.932Z,28.67
2022-09-24T11:39:30.523Z,34.63
2022-09-24T11:42:19.991Z,32.03
2022-09-24T11:48:39.464Z,29.70
2022-09-24T11:51:33.365Z,33.15
2022-09-24T11:54:22.983Z,28.98
2022-09-24T12:03:07.996Z,29.92
2022-09-24T12:05:57.303Z,31.23
2022-09-24T12:12:02.514Z,30.17
2022-09-24T12:14:41.617Z,29.10
2022-09-24T12:35:30.618Z,26.63
2022-09-24T12:38:11.520Z,31.05
2022-09-24T12:41:02.145Z,28.83
2022-09-24T12:43:38.606Z,28.25
2022-09-24T12:46:17.064Z,27.63
2022-09-24T12:51:49.869Z,28.63
2022-09-24T12:57:26.139Z,30.70
2022-09-24T13:00:39.297Z,32.38
2022-09-24T13:03:08.730Z,29.40
2022-09-24T13:20:00.958Z,28.92
2022-09-24T13:22:33.360Z,31.00
2022-09-24T13:31:24.679Z,28.95
2022-09-24T13:34:13.343Z,23.02
2022-09-24T13:37:05.658Z,24.40
2022-09-24T13:39:45.061Z,28.13
2022-09-24T13:43:16.704Z,27.67
2022-09-24T13:45:45.434Z,29.75
2022-09-24T13:48:43.087Z,26.95
2022-09-24T14:03:02.903Z,26.48
2022-09-24T14:05:38.841Z,26.50
2022-09-24T14:08:16.161Z,26.98
2022-09-24T14:13:45.928Z,25.33
2022-09-24T14:19:07.578Z,26.65
2022-09-24T14:21:40.825Z,24.90
2022-09-24T14:27:17.701Z,25.38
2022-09-24T14:29:52.581Z,29.33
2022-09-24T14:32:27.500Z,27.70
2022-09-24T14:35:17.395Z,28.02
2022-09-24T14:37:53.290Z,27.70
2022-09-24T14:49:28.023Z,31.13
2022-09-24T15:27:47.071Z,29.15
2022-09-24T15:50:56.045Z,28.45
2022-09-24T17:10:28.020Z,30.13
2022-09-24T17:12:57.110Z,30.90
2022-09-24T17:15:32.898Z,33.33
2022-09-24T17:18:07.841Z,33.05
2022-09-24T17:23:45.428Z,31.50
2022-09-24T17:37:28.091Z,31.13
2022-09-24T17:39:59.420Z,29.27
2022-09-24T17:45:21.528Z,34.50
2022-09-24T17:48:01.190Z,29.98
2022-09-24T17:50:37.395Z,30.67
2022-09-24T17:53:15.790Z,30.35
2022-09-24T17:58:37.651Z,30.85
2022-09-24T18:01:13.644Z,29.95
2022-09-24T18:03:42.227Z,32.58
2022-09-24T18:06:13.189Z,33.30
2022-09-24T18:08:42.606Z,34.28
2022-09-24T18:11:17.566Z,30.58
2022-09-24T18:13:45.091Z,33.65
2022-09-24T18:16:14.776Z,31.95
2022-09-24T18:18:43.808Z,28.50
2022-09-24T18:21:14.011Z,34.42
2022-09-24T18:23:42.282Z,39.08
2022-09-24T18:26:16.534Z,38.67
2022-09-24T18:29:17.754Z,39.35
2022-09-24T18:31:47.164Z,38.08
2022-09-24T18:34:17.806Z,34.85
2022-09-24T18:36:46.418Z,36.67
2022-09-24T20:07:25.917Z,31.50
2022-09-24T20:27:04.463Z,25.92
2022-09-24T21:25:54.050Z,30.17
2022-09-24T21:36:44.961Z,28.02
2022-09-24T21:39:24.643Z,30.92
2022-09-24T22:27:50.261Z,25.75
2022-09-24T22:30:18.556Z,33.25
2022-09-24T22:32:46.414Z,34.72
2022-09-24T22:35:33.244Z,31.35
2022-09-24T22:38:01.270Z,33.42
2022-09-24T22:40:28.520Z,30.40
2022-09-24T22:42:56.518Z,28.65
2022-09-24T22:45:24.265Z,29.15
2022-09-24T22:47:53.998Z,30.10
